METAR Data
IDs: Format: Raw Decoded Include TAF

Data at: 2131 UTC 02 Aug 2021

EFJY 022120Z AUTO 30006KT 9999 FEW009 15/13 Q0998